Time;durP1;ratioP1;P1;durP2;ratioP2;P2;SDS_P1;SDS_P2;PMS_P1;PMS_P2;Temp;Humidity;BMP_temperature;BMP_pressure;BME280_temperature;BME280_humidity;BME280_pressure;Samples;Min_cycle;Max_cycle;Signal;HPM_P1;HPM_P2
2022/04/09 00:01:52;;;;;;;5.30;1.90;;;;;;;;;;5010432;28;20853;-82
2022/04/09 00:04:18;;;;;;;7.07;2.50;;;;;;;;;;5008084;28;20478;-80
2022/04/09 00:06:45;;;;;;;4.75;2.28;;;;;;;;;;5006592;28;20477;-81
2022/04/09 00:09:11;;;;;;;11.90;2.95;;;;;;;;;;5007819;28;20482;-81
2022/04/09 00:11:37;;;;;;;6.13;2.60;;;;;;;;;;5008784;28;20429;-81
2022/04/09 00:14:04;;;;;;;11.82;3.30;;;;;;;;;;5008622;28;20475;-81
2022/04/09 00:16:30;;;;;;;4.78;2.70;;;;;;;;;;5007520;28;20481;-80
2022/04/09 00:18:58;;;;;;;8.80;2.97;;;;;;;;;;5007655;28;20804;-82
2022/04/09 00:21:28;;;;;;;7.72;2.30;;;;;;;;;;5008833;28;20555;-82
2022/04/09 00:23:54;;;;;;;5.72;2.67;;;;;;;;;;5008409;28;20436;-82
2022/04/09 00:26:20;;;;;;;11.00;2.80;;;;;;;;;;5010630;28;20478;-81
2022/04/09 00:28:47;;;;;;;7.32;2.90;;;;;;;;;;5006371;28;20434;-81
2022/04/09 00:31:13;;;;;;;9.88;2.83;;;;;;;;;;5010709;28;20863;-83
2022/04/09 00:33:39;;;;;;;12.27;2.80;;;;;;;;;;5008543;28;20501;-81
2022/04/09 00:36:07;;;;;;;7.75;2.45;;;;;;;;;;5006916;28;20436;-82
2022/04/09 00:38:33;;;;;;;6.50;2.40;;;;;;;;;;5006429;28;20434;-81
2022/04/09 00:40:59;;;;;;;8.00;2.55;;;;;;;;;;5007210;28;20432;-81
2022/04/09 00:43:26;;;;;;;5.90;2.50;;;;;;;;;;5008916;28;20485;-82
2022/04/09 00:45:52;;;;;;;6.63;2.63;;;;;;;;;;5010928;28;20434;-81
2022/04/09 00:48:20;;;;;;;7.43;2.50;;;;;;;;;;5007351;28;20428;-80
2022/04/09 00:50:46;;;;;;;8.05;2.80;;;;;;;;;;5008206;28;20430;-82
2022/04/09 00:53:14;;;;;;;5.25;2.55;;;;;;;;;;5006152;28;20483;-81
2022/04/09 00:58:25;;;;;;;7.63;2.63;;;;;;;;;;5008820;28;20471;-81
2022/04/09 01:00:52;;;;;;;8.83;3.10;;;;;;;;;;5008400;28;20611;-82
2022/04/09 01:03:19;;;;;;;11.20;3.00;;;;;;;;;;5007348;28;20459;-83
2022/04/09 01:05:46;;;;;;;6.57;3.07;;;;;;;;;;5009007;28;20448;-80
2022/04/09 01:08:14;;;;;;;6.38;2.70;;;;;;;;;;5007530;28;20479;-82
2022/04/09 01:10:40;;;;;;;9.48;3.30;;;;;;;;;;5007428;28;20433;-83
2022/04/09 01:13:07;;;;;;;9.52;3.10;;;;;;;;;;5009243;28;20447;-82
2022/04/09 01:15:33;;;;;;;5.90;3.08;;;;;;;;;;5009708;28;20506;-82
2022/04/09 01:18:00;;;;;;;7.70;3.30;;;;;;;;;;5008719;28;20427;-81
2022/04/09 01:20:26;;;;;;;7.90;3.60;;;;;;;;;;5008834;28;20461;-82
2022/04/09 01:22:54;;;;;;;13.30;4.10;;;;;;;;;;5010711;28;20412;-82
2022/04/09 01:25:22;;;;;;;10.13;3.38;;;;;;;;;;5009678;28;21299;-82
2022/04/09 01:27:49;;;;;;;7.85;3.35;;;;;;;;;;5007884;28;20461;-82
2022/04/09 01:30:16;;;;;;;5.72;3.30;;;;;;;;;;5007532;28;20464;-81
2022/04/09 01:32:42;;;;;;;7.85;3.53;;;;;;;;;;5009564;28;20919;-82
2022/04/09 01:35:08;;;;;;;10.47;3.83;;;;;;;;;;5009691;28;20844;-83
2022/04/09 01:37:35;;;;;;;8.60;3.63;;;;;;;;;;5007280;28;20424;-83
2022/04/09 01:40:02;;;;;;;11.10;3.43;;;;;;;;;;5007443;28;20763;-82
2022/04/09 01:42:29;;;;;;;12.05;3.67;;;;;;;;;;5006867;28;20510;-82
2022/04/09 01:44:55;;;;;;;8.90;3.50;;;;;;;;;;5009704;28;20440;-82
2022/04/09 01:47:21;;;;;;;9.38;3.47;;;;;;;;;;5007252;28;20410;-82
2022/04/09 01:49:47;;;;;;;8.63;3.53;;;;;;;;;;5008503;28;20566;-82
2022/04/09 01:52:13;;;;;;;4.65;2.90;;;;;;;;;;5006156;28;20487;-82
2022/04/09 01:54:40;;;;;;;11.40;3.50;;;;;;;;;;5010945;28;20479;-82
2022/04/09 01:57:08;;;;;;;6.43;2.40;;;;;;;;;;5008550;28;20436;-82
2022/04/09 01:59:34;;;;;;;8.55;2.90;;;;;;;;;;5007323;28;20448;-82
2022/04/09 02:02:00;;;;;;;7.45;3.03;;;;;;;;;;5006931;28;20440;-83
2022/04/09 02:04:26;;;;;;;6.13;3.10;;;;;;;;;;5009774;28;20490;-83
2022/04/09 02:06:54;;;;;;;6.25;2.45;;;;;;;;;;5008410;28;20434;-82
2022/04/09 02:09:20;;;;;;;5.43;2.25;;;;;;;;;;5008688;28;20432;-81
2022/04/09 02:11:47;;;;;;;6.15;2.50;;;;;;;;;;5008384;28;20448;-82
2022/04/09 02:14:14;;;;;;;5.32;1.90;;;;;;;;;;5009658;28;20934;-84
2022/04/09 02:16:41;;;;;;;8.00;2.20;;;;;;;;;;5008405;28;20445;-80
2022/04/09 02:19:08;;;;;;;5.97;2.30;;;;;;;;;;5007488;28;20428;-81
2022/04/09 02:21:34;;;;;;;7.22;2.20;;;;;;;;;;5008598;28;20496;-82
2022/04/09 02:24:01;;;;;;;4.72;1.90;;;;;;;;;;5009973;28;20433;-82
2022/04/09 02:26:27;;;;;;;5.95;2.85;;;;;;;;;;5007626;28;20768;-82
2022/04/09 02:28:53;;;;;;;7.75;2.22;;;;;;;;;;5008184;28;20425;-82
2022/04/09 02:31:22;;;;;;;5.00;2.22;;;;;;;;;;5007762;28;20436;-82
2022/04/09 02:33:48;;;;;;;6.75;2.47;;;;;;;;;;5008891;28;20989;-83
2022/04/09 02:36:16;;;;;;;4.57;2.38;;;;;;;;;;5010091;28;20436;-82
2022/04/09 02:38:42;;;;;;;4.35;2.00;;;;;;;;;;5006977;28;20899;-82
2022/04/09 02:41:09;;;;;;;5.63;2.28;;;;;;;;;;5009634;28;20426;-82
2022/04/09 02:43:35;;;;;;;7.72;2.20;;;;;;;;;;5008216;28;20429;-82
2022/04/09 02:46:02;;;;;;;7.38;2.53;;;;;;;;;;5010725;28;20442;-82
2022/04/09 02:48:29;;;;;;;5.85;2.90;;;;;;;;;;5005694;28;20442;-82
2022/04/09 02:50:56;;;;;;;5.95;2.30;;;;;;;;;;5010663;28;20438;-82
2022/04/09 02:53:22;;;;;;;10.27;2.70;;;;;;;;;;5006068;28;20435;-81
2022/04/09 02:55:48;;;;;;;6.45;2.30;;;;;;;;;;5011492;28;20421;-82
2022/04/09 02:58:15;;;;;;;5.55;2.45;;;;;;;;;;5010133;28;20455;-83
2022/04/09 03:00:41;;;;;;;6.20;2.33;;;;;;;;;;5009480;28;20429;-82
2022/04/09 03:03:07;;;;;;;4.65;2.53;;;;;;;;;;5009299;28;20516;-82
2022/04/09 03:05:35;;;;;;;2.65;1.80;;;;;;;;;;5009381;28;20584;-83
2022/04/09 03:08:01;;;;;;;6.30;2.40;;;;;;;;;;5009877;28;20855;-82
2022/04/09 03:10:27;;;;;;;6.33;2.40;;;;;;;;;;5009100;28;20463;-83
2022/04/09 03:12:54;;;;;;;5.40;2.03;;;;;;;;;;5008911;28;20425;-83
2022/04/09 03:15:20;;;;;;;6.40;2.23;;;;;;;;;;5009002;28;20504;-81
2022/04/09 03:17:46;;;;;;;5.18;2.00;;;;;;;;;;5010608;28;20427;-82
2022/04/09 03:20:12;;;;;;;4.55;2.30;;;;;;;;;;5010502;28;20436;-82
2022/04/09 03:22:45;;;;;;;6.47;2.42;;;;;;;;;;5010307;28;20492;-83
2022/04/09 03:25:12;;;;;;;9.90;2.88;;;;;;;;;;5010889;28;20516;-82
2022/04/09 03:27:38;;;;;;;3.90;2.20;;;;;;;;;;5009096;28;20503;-82
2022/04/09 03:30:05;;;;;;;7.13;2.55;;;;;;;;;;5010507;28;20452;-83
2022/04/09 03:32:31;;;;;;;10.50;3.22;;;;;;;;;;5012340;28;20433;-82
2022/04/09 03:34:58;;;;;;;9.43;2.97;;;;;;;;;;5012748;28;20565;-83
2022/04/09 03:37:24;;;;;;;8.05;3.10;;;;;;;;;;5009273;28;20472;-82
2022/04/09 03:39:51;;;;;;;9.65;3.55;;;;;;;;;;5009341;28;20433;-83
2022/04/09 03:42:17;;;;;;;9.57;3.08;;;;;;;;;;5009718;28;20417;-83
2022/04/09 03:44:44;;;;;;;10.70;3.50;;;;;;;;;;5011587;28;20488;-81
2022/04/09 03:47:10;;;;;;;5.57;3.05;;;;;;;;;;5007812;28;20436;-82
2022/04/09 03:49:36;;;;;;;10.77;3.25;;;;;;;;;;5001717;28;20500;-82
2022/04/09 03:52:03;;;;;;;8.45;3.00;;;;;;;;;;5003241;28;20429;-82
2022/04/09 03:54:30;;;;;;;11.13;3.47;;;;;;;;;;5002660;28;20984;-83
2022/04/09 03:56:58;;;;;;;9.30;3.30;;;;;;;;;;5004512;28;20460;-83
2022/04/09 03:59:24;;;;;;;8.77;3.40;;;;;;;;;;5002257;28;20452;-81
2022/04/09 04:01:50;;;;;;;8.00;3.40;;;;;;;;;;5007652;28;20424;-81
2022/04/09 04:04:17;;;;;;;10.32;3.70;;;;;;;;;;5007159;28;20461;-82
2022/04/09 04:06:43;;;;;;;8.07;3.42;;;;;;;;;;5007587;28;20426;-82
2022/04/09 04:09:09;;;;;;;9.20;3.22;;;;;;;;;;5005844;28;20429;-82
2022/04/09 04:11:35;;;;;;;8.13;3.50;;;;;;;;;;5006852;28;20437;-82
2022/04/09 04:14:04;;;;;;;9.68;3.83;;;;;;;;;;5009302;28;20434;-81
2022/04/09 04:16:30;;;;;;;12.98;3.80;;;;;;;;;;5006970;28;20523;-82
2022/04/09 04:18:56;;;;;;;7.57;3.00;;;;;;;;;;5007249;28;20440;-82
2022/04/09 04:21:23;;;;;;;11.93;3.40;;;;;;;;;;5006383;28;20486;-82
2022/04/09 04:23:49;;;;;;;11.15;3.80;;;;;;;;;;5007021;28;20557;-82
2022/04/09 04:26:15;;;;;;;8.45;3.35;;;;;;;;;;5006215;28;20432;-82
2022/04/09 04:28:41;;;;;;;7.43;3.05;;;;;;;;;;5007147;28;20453;-82
2022/04/09 04:31:09;;;;;;;9.57;3.15;;;;;;;;;;5008555;28;20428;-82
2022/04/09 04:33:36;;;;;;;7.57;2.95;;;;;;;;;;5007185;28;20459;-81
2022/04/09 04:36:04;;;;;;;11.40;3.88;;;;;;;;;;5007905;28;20441;-82
2022/04/09 04:38:30;;;;;;;5.70;3.35;;;;;;;;;;5004035;28;20426;-81
2022/04/09 04:40:56;;;;;;;8.32;3.53;;;;;;;;;;5008510;28;20440;-82
2022/04/09 04:43:22;;;;;;;6.50;3.00;;;;;;;;;;5006865;28;20449;-81
2022/04/09 04:45:49;;;;;;;10.13;3.50;;;;;;;;;;5004895;28;20917;-82
2022/04/09 04:48:16;;;;;;;5.40;3.15;;;;;;;;;;5006933;28;20808;-81
2022/04/09 04:50:43;;;;;;;10.13;3.30;;;;;;;;;;5009084;28;20464;-82
2022/04/09 04:53:09;;;;;;;10.05;3.30;;;;;;;;;;5007393;28;20424;-82
2022/04/09 04:55:35;;;;;;;7.43;3.00;;;;;;;;;;5008009;28;20433;-81
2022/04/09 04:58:02;;;;;;;10.80;3.60;;;;;;;;;;5005106;28;20418;-81
2022/04/09 05:00:28;;;;;;;7.88;3.50;;;;;;;;;;5006749;28;20932;-81
2022/04/09 05:02:54;;;;;;;7.75;3.40;;;;;;;;;;5008513;28;20518;-81
2022/04/09 05:05:22;;;;;;;7.32;3.20;;;;;;;;;;5008824;28;20488;-81
2022/04/09 05:07:49;;;;;;;8.98;3.30;;;;;;;;;;5008177;28;20467;-81
2022/04/09 05:10:16;;;;;;;12.70;3.50;;;;;;;;;;5007492;28;20457;-81
2022/04/09 05:12:43;;;;;;;5.77;3.53;;;;;;;;;;5004209;28;20942;-81
2022/04/09 05:15:10;;;;;;;6.45;3.22;;;;;;;;;;5006179;28;21324;-81
2022/04/09 05:17:36;;;;;;;10.27;3.20;;;;;;;;;;5007452;28;20443;-82
2022/04/09 05:20:03;;;;;;;7.57;3.58;;;;;;;;;;5006202;28;20490;-81
2022/04/09 05:22:31;;;;;;;6.38;3.33;;;;;;;;;;5007667;28;20422;-82
2022/04/09 05:24:58;;;;;;;8.52;3.83;;;;;;;;;;5007377;28;20505;-81
2022/04/09 05:27:24;;;;;;;14.50;3.90;;;;;;;;;;5006439;28;20846;-82
2022/04/09 05:29:51;;;;;;;10.55;4.10;;;;;;;;;;5007227;28;20438;-82
2022/04/09 05:32:17;;;;;;;8.43;3.30;;;;;;;;;;5004645;28;20471;-82
2022/04/09 05:34:46;;;;;;;10.85;3.67;;;;;;;;;;5010102;28;20438;-85
2022/04/09 05:37:12;;;;;;;9.90;3.70;;;;;;;;;;5008457;28;20492;-81
2022/04/09 05:39:40;;;;;;;9.85;3.40;;;;;;;;;;5120957;23;20438;-83
2022/04/09 05:42:06;;;;;;;9.07;3.33;;;;;;;;;;5003620;28;20420;-82
2022/04/09 05:44:32;;;;;;;8.93;3.47;;;;;;;;;;5004870;28;20426;-84
2022/04/09 05:47:00;;;;;;;6.47;3.17;;;;;;;;;;5004568;28;20488;-84
2022/04/09 05:49:26;;;;;;;7.63;2.90;;;;;;;;;;5003794;28;20440;-84
2022/04/09 05:51:52;;;;;;;6.97;2.80;;;;;;;;;;5005470;28;20496;-84
2022/04/09 05:54:19;;;;;;;8.93;3.10;;;;;;;;;;5005736;28;20485;-83
2022/04/09 05:56:46;;;;;;;8.83;3.00;;;;;;;;;;5003986;28;20922;-84
2022/04/09 05:59:12;;;;;;;8.23;2.60;;;;;;;;;;5006583;28;20856;-88
2022/04/09 06:01:39;;;;;;;8.65;2.65;;;;;;;;;;5007034;28;20452;-83
2022/04/09 06:04:06;;;;;;;7.85;2.70;;;;;;;;;;5005839;28;20456;-84
2022/04/09 06:06:32;;;;;;;7.93;3.10;;;;;;;;;;5007296;28;20424;-84
2022/04/09 06:08:58;;;;;;;10.50;3.30;;;;;;;;;;5005361;28;20433;-84
2022/04/09 06:11:25;;;;;;;8.20;2.97;;;;;;;;;;5004775;28;20436;-84
2022/04/09 06:13:52;;;;;;;7.60;2.63;;;;;;;;;;5005151;28;20516;-83
2022/04/09 06:16:19;;;;;;;7.25;3.25;;;;;;;;;;5007552;28;20487;-87
2022/04/09 06:18:45;;;;;;;6.38;2.50;;;;;;;;;;5004957;28;20993;-84
2022/04/09 06:21:13;;;;;;;9.40;2.78;;;;;;;;;;5004859;28;20497;-83
2022/04/09 06:23:39;;;;;;;7.70;3.45;;;;;;;;;;5002137;28;21065;-84
2022/04/09 06:26:06;;;;;;;10.68;3.70;;;;;;;;;;5003843;28;20428;-84
2022/04/09 06:28:34;;;;;;;6.43;3.03;;;;;;;;;;5002534;28;20827;-84
2022/04/09 06:31:01;;;;;;;10.13;3.08;;;;;;;;;;5004612;28;20501;-84
2022/04/09 06:33:27;;;;;;;9.13;3.20;;;;;;;;;;5003381;28;20414;-86
2022/04/09 06:35:54;;;;;;;5.78;2.70;;;;;;;;;;5001847;28;20436;-86
2022/04/09 06:38:20;;;;;;;8.40;2.80;;;;;;;;;;5001288;28;20434;-84
2022/04/09 06:40:46;;;;;;;8.45;3.47;;;;;;;;;;5001891;28;20436;-84
2022/04/09 06:43:13;;;;;;;5.22;2.42;;;;;;;;;;5003636;28;20482;-83
2022/04/09 06:45:39;;;;;;;6.93;2.92;;;;;;;;;;5004445;28;20469;-84
2022/04/09 06:48:06;;;;;;;9.25;2.70;;;;;;;;;;5004400;28;20525;-84
2022/04/09 06:50:33;;;;;;;7.25;3.20;;;;;;;;;;5003956;28;20466;-84
2022/04/09 06:52:59;;;;;;;11.57;3.00;;;;;;;;;;5006207;28;20465;-85
2022/04/09 06:55:25;;;;;;;12.63;3.30;;;;;;;;;;5005038;28;20463;-84
2022/04/09 06:57:51;;;;;;;9.20;3.17;;;;;;;;;;5005903;28;20906;-84
2022/04/09 07:00:18;;;;;;;8.63;2.70;;;;;;;;;;5000973;28;20439;-84
2022/04/09 07:02:44;;;;;;;11.43;3.50;;;;;;;;;;5006135;28;20476;-87
2022/04/09 07:05:12;;;;;;;7.10;2.60;;;;;;;;;;5007585;28;20418;-84
2022/04/09 07:07:38;;;;;;;11.07;2.75;;;;;;;;;;5004242;28;20476;-88
2022/04/09 07:10:05;;;;;;;9.30;2.60;;;;;;;;;;5005224;28;20449;-84
2022/04/09 07:12:31;;;;;;;7.43;2.60;;;;;;;;;;5007662;28;20421;-85
2022/04/09 07:14:57;;;;;;;4.95;2.20;;;;;;;;;;5004641;28;21400;-85
2022/04/09 07:17:24;;;;;;;6.05;2.38;;;;;;;;;;5002332;28;20433;-85
2022/04/09 07:19:51;;;;;;;8.93;2.38;;;;;;;;;;5006891;28;20432;-84
2022/04/09 07:22:18;;;;;;;7.43;2.10;;;;;;;;;;5006485;28;20413;-85
2022/04/09 07:24:45;;;;;;;7.38;1.88;;;;;;;;;;5004784;28;20494;-84
2022/04/09 07:27:11;;;;;;;6.55;2.47;;;;;;;;;;5006977;28;20440;-83
2022/04/09 07:29:37;;;;;;;8.60;2.40;;;;;;;;;;5008289;28;20587;-85
2022/04/09 07:32:04;;;;;;;5.65;2.10;;;;;;;;;;5002791;28;20436;-84
2022/04/09 07:34:30;;;;;;;7.07;2.00;;;;;;;;;;5005443;28;20848;-85
2022/04/09 07:36:56;;;;;;;4.68;1.80;;;;;;;;;;5008007;28;20810;-84
2022/04/09 07:39:23;;;;;;;10.10;2.40;;;;;;;;;;5006752;28;20440;-84
2022/04/09 07:41:50;;;;;;;6.45;2.20;;;;;;;;;;5009367;28;20448;-84
2022/04/09 07:44:16;;;;;;;6.50;2.10;;;;;;;;;;5007609;28;20458;-84
2022/04/09 07:46:42;;;;;;;6.65;1.83;;;;;;;;;;5008564;28;20840;-84
2022/04/09 07:49:09;;;;;;;8.23;2.20;;;;;;;;;;5006526;28;20853;-84
2022/04/09 07:51:35;;;;;;;10.27;2.60;;;;;;;;;;5005683;28;20425;-84
2022/04/09 07:54:01;;;;;;;9.20;2.22;;;;;;;;;;5006937;28;20430;-84
2022/04/09 07:56:29;;;;;;;8.05;2.10;;;;;;;;;;5007438;28;20438;-85
2022/04/09 07:58:55;;;;;;;9.55;2.33;;;;;;;;;;5006311;28;20489;-84
2022/04/09 08:01:21;;;;;;;10.20;2.20;;;;;;;;;;5006540;28;20461;-84
2022/04/09 08:03:49;;;;;;;4.97;1.73;;;;;;;;;;5006829;28;20485;-83
2022/04/09 08:06:15;;;;;;;7.10;2.40;;;;;;;;;;5008919;28;20447;-84
2022/04/09 08:08:41;;;;;;;7.97;2.35;;;;;;;;;;5004977;28;20849;-83
2022/04/09 08:11:09;;;;;;;7.00;1.90;;;;;;;;;;5007592;28;20463;-84
2022/04/09 08:13:37;;;;;;;7.65;2.10;;;;;;;;;;5010636;28;20915;-84
2022/04/09 08:16:03;;;;;;;11.27;2.33;;;;;;;;;;5010183;28;20438;-85
2022/04/09 08:18:29;;;;;;;7.68;2.00;;;;;;;;;;5009706;28;20416;-85
2022/04/09 08:20:55;;;;;;;6.40;2.10;;;;;;;;;;5013271;28;20419;-85
2022/04/09 08:23:22;;;;;;;8.35;2.22;;;;;;;;;;5007154;28;20939;-85
2022/04/09 08:25:49;;;;;;;6.73;2.10;;;;;;;;;;5007361;28;20437;-84
2022/04/09 08:28:16;;;;;;;6.05;2.03;;;;;;;;;;5004222;28;20428;-84
2022/04/09 08:30:44;;;;;;;4.93;1.85;;;;;;;;;;4995259;28;20430;-84
2022/04/09 08:33:13;;;;;;;5.75;2.00;;;;;;;;;;5008820;28;20439;-84
2022/04/09 08:35:39;;;;;;;7.82;1.95;;;;;;;;;;5005935;28;20476;-84
2022/04/09 08:38:06;;;;;;;5.90;2.10;;;;;;;;;;5005080;28;20433;-84
2022/04/09 08:40:33;;;;;;;6.50;1.92;;;;;;;;;;5006404;28;21005;-84
2022/04/09 08:42:59;;;;;;;5.95;1.90;;;;;;;;;;5004357;28;20579;-83
2022/04/09 08:45:26;;;;;;;7.28;2.55;;;;;;;;;;5002567;28;20502;-86
2022/04/09 08:47:54;;;;;;;6.63;1.90;;;;;;;;;;5002798;28;21000;-83
2022/04/09 08:50:21;;;;;;;9.93;2.40;;;;;;;;;;4998528;28;20946;-84
2022/04/09 08:52:47;;;;;;;4.93;2.10;;;;;;;;;;5003551;28;20432;-85
2022/04/09 08:55:13;;;;;;;10.70;2.40;;;;;;;;;;5002406;28;20420;-85
2022/04/09 08:57:39;;;;;;;9.10;2.90;;;;;;;;;;5001267;28;20425;-84
2022/04/09 09:00:07;;;;;;;9.63;3.10;;;;;;;;;;5003585;28;20483;-85
2022/04/09 09:02:34;;;;;;;9.60;2.93;;;;;;;;;;5002370;28;20473;-85
2022/04/09 09:05:02;;;;;;;7.38;2.30;;;;;;;;;;5002613;28;20432;-85
2022/04/09 09:07:29;;;;;;;8.25;2.47;;;;;;;;;;5001015;28;20429;-85
2022/04/09 09:10:13;;;;;;;10.18;2.17;;;;;;;;;;5003826;28;20943;-85
2022/04/09 09:12:39;;;;;;;7.53;2.88;;;;;;;;;;5002712;28;20840;-85
2022/04/09 09:15:06;;;;;;;5.63;2.05;;;;;;;;;;5003871;28;20429;-85
2022/04/09 09:17:32;;;;;;;4.65;1.60;;;;;;;;;;5002732;28;20479;-87
2022/04/09 09:19:59;;;;;;;8.15;2.22;;;;;;;;;;4999915;28;20440;-85
2022/04/09 09:22:39;;;;;;;6.68;1.90;;;;;;;;;;5002452;28;20438;-84
2022/04/09 09:25:07;;;;;;;5.70;2.10;;;;;;;;;;5003723;28;20475;-85
2022/04/09 09:27:33;;;;;;;5.97;1.55;;;;;;;;;;5002772;28;20480;-85
2022/04/09 09:29:59;;;;;;;7.40;2.20;;;;;;;;;;5002242;28;20826;-85
2022/04/09 09:32:26;;;;;;;8.60;2.30;;;;;;;;;;5002778;28;20421;-85
2022/04/09 09:34:53;;;;;;;5.13;1.73;;;;;;;;;;5003706;28;20421;-84
2022/04/09 09:37:21;;;;;;;6.40;2.17;;;;;;;;;;5002199;28;20972;-86
2022/04/09 09:39:48;;;;;;;7.03;1.75;;;;;;;;;;5006098;28;20436;-85
2022/04/09 09:42:18;;;;;;;6.30;1.73;;;;;;;;;;5005327;28;20428;-85
2022/04/09 09:44:44;;;;;;;8.63;2.10;;;;;;;;;;5000964;28;20858;-85
2022/04/09 09:47:12;;;;;;;7.35;2.25;;;;;;;;;;5005890;28;20422;-86
2022/04/09 09:49:41;;;;;;;8.65;2.97;;;;;;;;;;5006725;28;20904;-84
2022/04/09 09:52:08;;;;;;;7.47;2.22;;;;;;;;;;5000335;28;20547;-84
2022/04/09 09:54:35;;;;;;;7.03;2.47;;;;;;;;;;5005042;28;20469;-85
2022/04/09 09:57:02;;;;;;;9.40;2.20;;;;;;;;;;5004302;28;20435;-84
2022/04/09 09:59:30;;;;;;;6.90;2.00;;;;;;;;;;5002495;28;20428;-83
2022/04/09 10:01:56;;;;;;;7.95;2.30;;;;;;;;;;5003163;28;20439;-84
2022/04/09 10:04:23;;;;;;;7.07;2.07;;;;;;;;;;5005246;28;20926;-83
2022/04/09 10:06:50;;;;;;;3.08;1.50;;;;;;;;;;5002015;28;20434;-85
2022/04/09 10:09:18;;;;;;;5.40;2.08;;;;;;;;;;5002237;28;20422;-84
2022/04/09 10:11:49;;;;;;;7.07;1.30;;;;;;;;;;5004078;28;20424;-84
2022/04/09 10:14:22;;;;;;;5.88;1.70;;;;;;;;;;5004143;28;20434;-85
2022/04/09 10:16:49;;;;;;;5.25;1.90;;;;;;;;;;5002402;28;21021;-85
2022/04/09 10:19:17;;;;;;;5.78;1.90;;;;;;;;;;5001993;28;20440;-84
2022/04/09 10:21:46;;;;;;;6.45;1.90;;;;;;;;;;5001617;28;20475;-83
2022/04/09 10:24:14;;;;;;;6.20;1.83;;;;;;;;;;5001758;28;20418;-84
2022/04/09 10:26:41;;;;;;;7.85;1.80;;;;;;;;;;5003262;28;20803;-84
2022/04/09 10:29:08;;;;;;;5.72;1.70;;;;;;;;;;5004172;28;20490;-84
2022/04/09 10:31:38;;;;;;;6.67;2.23;;;;;;;;;;5001804;28;20504;-84
2022/04/09 10:34:05;;;;;;;4.25;2.00;;;;;;;;;;5002949;28;20436;-84
2022/04/09 10:36:51;;;;;;;4.30;1.30;;;;;;;;;;5001564;28;20807;-84
2022/04/09 10:39:21;;;;;;;7.78;2.40;;;;;;;;;;5001030;28;20507;-86
2022/04/09 10:41:47;;;;;;;9.52;2.40;;;;;;;;;;5001964;28;20427;-86
2022/04/09 10:44:33;;;;;;;7.60;2.08;;;;;;;;;;5001572;28;20428;-85
2022/04/09 10:47:02;;;;;;;8.77;2.50;;;;;;;;;;5001684;28;20422;-84
2022/04/09 10:49:29;;;;;;;6.03;1.30;;;;;;;;;;5003300;28;20432;-83
2022/04/09 10:52:16;;;;;;;4.25;1.40;;;;;;;;;;5002222;28;20462;-84
2022/04/09 10:55:03;;;;;;;3.92;1.55;;;;;;;;;;5004976;28;20486;-85
2022/04/09 10:57:29;;;;;;;5.65;1.30;;;;;;;;;;5002890;28;20417;-84
2022/04/09 10:59:56;;;;;;;6.60;1.42;;;;;;;;;;5002720;28;20869;-84
2022/04/09 11:02:25;;;;;;;4.68;1.23;;;;;;;;;;5002339;28;20426;-84
2022/04/09 11:04:51;;;;;;;3.60;1.10;;;;;;;;;;5003451;28;20982;-83
2022/04/09 11:07:18;;;;;;;2.65;1.25;;;;;;;;;;5002324;28;20429;-84
2022/04/09 11:09:52;;;;;;;5.78;1.27;;;;;;;;;;5002822;28;20876;-83
2022/04/09 11:12:20;;;;;;;5.28;1.80;;;;;;;;;;5004980;28;20424;-85
2022/04/09 11:14:48;;;;;;;6.65;1.92;;;;;;;;;;5005869;28;20480;-84
2022/04/09 11:17:18;;;;;;;6.50;2.38;;;;;;;;;;5006485;28;20949;-84
2022/04/09 11:19:46;;;;;;;7.47;1.90;;;;;;;;;;5005569;28;20813;-84
2022/04/09 11:22:12;;;;;;;6.80;2.10;;;;;;;;;;5003425;28;20520;-84
2022/04/09 11:24:39;;;;;;;6.20;1.88;;;;;;;;;;5007120;28;20483;-84
2022/04/09 11:27:05;;;;;;;5.05;1.90;;;;;;;;;;5005871;28;20779;-85
2022/04/09 11:29:32;;;;;;;9.77;2.50;;;;;;;;;;5003351;28;20440;-84
2022/04/09 11:31:58;;;;;;;7.47;1.77;;;;;;;;;;5004617;28;20561;-84
2022/04/09 11:34:25;;;;;;;4.78;1.38;;;;;;;;;;5007554;28;20432;-84
2022/04/09 11:37:07;;;;;;;4.20;1.30;;;;;;;;;;5006953;28;20424;-85
2022/04/09 11:39:37;;;;;;;6.82;1.52;;;;;;;;;;5008099;28;20449;-84
2022/04/09 11:42:03;;;;;;;6.18;1.60;;;;;;;;;;5006422;28;20427;-84
2022/04/09 11:44:30;;;;;;;7.05;1.73;;;;;;;;;;5003289;28;20946;-83
2022/04/09 11:46:58;;;;;;;7.45;2.20;;;;;;;;;;5005401;28;20425;-84
2022/04/09 11:49:29;;;;;;;7.20;1.80;;;;;;;;;;5006385;28;20502;-86
2022/04/09 11:51:56;;;;;;;5.80;1.40;;;;;;;;;;5006877;28;20992;-84
2022/04/09 11:54:24;;;;;;;5.78;1.80;;;;;;;;;;5006756;28;20481;-84
2022/04/09 11:56:51;;;;;;;5.03;1.60;;;;;;;;;;5007855;28;20420;-84
2022/04/09 11:59:17;;;;;;;7.35;2.03;;;;;;;;;;5003493;28;20434;-84
2022/04/09 12:01:45;;;;;;;6.45;2.05;;;;;;;;;;5004064;28;20436;-84
2022/04/09 12:04:11;;;;;;;9.02;1.80;;;;;;;;;;5006811;28;20439;-85
2022/04/09 12:06:38;;;;;;;6.90;1.73;;;;;;;;;;5007292;28;20428;-83
2022/04/09 12:09:06;;;;;;;6.72;1.90;;;;;;;;;;5007307;28;20510;-84
2022/04/09 12:11:32;;;;;;;6.05;2.00;;;;;;;;;;5006770;28;20482;-84
2022/04/09 12:14:08;;;;;;;7.82;2.10;;;;;;;;;;5008797;28;20451;-84
2022/04/09 12:16:37;;;;;;;7.37;2.30;;;;;;;;;;5007561;28;20587;-84
2022/04/09 12:19:04;;;;;;;6.40;2.60;;;;;;;;;;5007783;28;20483;-85
2022/04/09 12:21:31;;;;;;;7.68;2.92;;;;;;;;;;5007686;28;20480;-84
2022/04/09 12:24:00;;;;;;;6.63;2.45;;;;;;;;;;5007736;28;20460;-84
2022/04/09 12:26:28;;;;;;;9.02;1.80;;;;;;;;;;5004811;28;20953;-84
2022/04/09 12:29:11;;;;;;;6.93;2.13;;;;;;;;;;5006835;28;20438;-84
2022/04/09 12:31:37;;;;;;;7.60;2.13;;;;;;;;;;5006571;28;20479;-85
2022/04/09 12:34:04;;;;;;;7.93;2.25;;;;;;;;;;5009262;28;20436;-84
2022/04/09 12:36:30;;;;;;;10.03;3.10;;;;;;;;;;5009175;28;20440;-83
2022/04/09 12:38:56;;;;;;;8.05;2.20;;;;;;;;;;5007566;28;20927;-84
2022/04/09 12:41:23;;;;;;;9.05;2.20;;;;;;;;;;5007982;28;20433;-84
2022/04/09 12:43:52;;;;;;;9.77;3.65;;;;;;;;;;5008889;28;20445;-83
2022/04/09 12:46:19;;;;;;;8.88;2.50;;;;;;;;;;5002164;28;20428;-85
2022/04/09 12:48:46;;;;;;;14.18;3.10;;;;;;;;;;5002970;28;20432;-85
2022/04/09 12:51:14;;;;;;;10.77;2.80;;;;;;;;;;5007637;28;20416;-85
2022/04/09 12:53:41;;;;;;;9.25;3.10;;;;;;;;;;5004663;28;20987;-85
2022/04/09 12:56:08;;;;;;;6.47;2.70;;;;;;;;;;5006522;28;20476;-85
2022/04/09 12:58:35;;;;;;;11.73;2.80;;;;;;;;;;5005395;28;20442;-85
2022/04/09 13:01:02;;;;;;;10.50;2.90;;;;;;;;;;5004481;28;21250;-86
2022/04/09 13:03:28;;;;;;;10.65;2.28;;;;;;;;;;5006502;28;20443;-85
2022/04/09 13:05:55;;;;;;;9.07;2.50;;;;;;;;;;5005817;28;21892;-85
2022/04/09 13:08:21;;;;;;;10.27;3.10;;;;;;;;;;5008073;28;20540;-85
2022/04/09 13:10:47;;;;;;;8.48;2.40;;;;;;;;;;5006430;28;20420;-84
2022/04/09 13:13:14;;;;;;;10.35;2.70;;;;;;;;;;4997833;28;20433;-84
2022/04/09 13:15:40;;;;;;;10.57;2.70;;;;;;;;;;5003337;28;20828;-84
2022/04/09 13:18:08;;;;;;;7.00;2.43;;;;;;;;;;5007541;28;20463;-84
2022/04/09 13:20:34;;;;;;;8.75;2.80;;;;;;;;;;5005036;28;20467;-85
2022/04/09 13:23:00;;;;;;;9.38;2.63;;;;;;;;;;5007342;28;20437;-85
2022/04/09 13:25:27;;;;;;;12.63;3.20;;;;;;;;;;5005393;28;20525;-85
2022/04/09 13:27:54;;;;;;;9.27;2.40;;;;;;;;;;5007934;28;20428;-85
2022/04/09 13:30:22;;;;;;;12.82;2.92;;;;;;;;;;5010039;28;20438;-84
2022/04/09 13:32:48;;;;;;;10.67;3.20;;;;;;;;;;5002758;28;20436;-85
2022/04/09 13:35:17;;;;;;;8.60;2.58;;;;;;;;;;5000140;28;20432;-85
2022/04/09 13:37:43;;;;;;;11.98;3.10;;;;;;;;;;5001522;28;20430;-85
2022/04/09 13:40:11;;;;;;;8.73;2.70;;;;;;;;;;5002138;28;20432;-85
2022/04/09 13:42:37;;;;;;;10.50;2.50;;;;;;;;;;5001999;28;20525;-85
2022/04/09 13:45:04;;;;;;;8.85;2.92;;;;;;;;;;5002102;28;20934;-86
2022/04/09 13:47:30;;;;;;;6.97;2.33;;;;;;;;;;5002774;28;20504;-85
2022/04/09 13:49:56;;;;;;;7.17;2.20;;;;;;;;;;5004325;28;20434;-85
2022/04/09 13:52:24;;;;;;;6.57;2.35;;;;;;;;;;4998297;28;20537;-85
2022/04/09 13:54:51;;;;;;;13.20;2.97;;;;;;;;;;5002255;28;20437;-84
2022/04/09 13:57:18;;;;;;;9.98;2.90;;;;;;;;;;5002400;28;20426;-85
2022/04/09 13:59:44;;;;;;;9.83;2.70;;;;;;;;;;5000862;28;20432;-83
2022/04/09 14:02:10;;;;;;;5.88;2.22;;;;;;;;;;4997150;28;20432;-85
2022/04/09 14:04:36;;;;;;;8.75;2.40;;;;;;;;;;5003092;28;20436;-84
2022/04/09 14:07:03;;;;;;;10.10;3.13;;;;;;;;;;5001676;28;20479;-85
2022/04/09 14:09:30;;;;;;;7.50;2.38;;;;;;;;;;5003099;28;20445;-85
2022/04/09 14:11:57;;;;;;;5.50;2.20;;;;;;;;;;5001207;28;20534;-86
2022/04/09 14:14:25;;;;;;;11.70;3.30;;;;;;;;;;5002515;28;20636;-85
2022/04/09 14:16:52;;;;;;;10.50;2.50;;;;;;;;;;5000499;28;20430;-84
2022/04/09 14:19:18;;;;;;;5.38;2.10;;;;;;;;;;5003829;28;20438;-85
2022/04/09 14:21:44;;;;;;;8.57;2.30;;;;;;;;;;4999826;28;20477;-84
2022/04/09 14:24:11;;;;;;;7.35;1.92;;;;;;;;;;5000858;28;20927;-84
2022/04/09 14:26:38;;;;;;;7.55;2.17;;;;;;;;;;5000227;28;20428;-84
2022/04/09 14:29:05;;;;;;;6.68;2.35;;;;;;;;;;5000028;28;20448;-86
2022/04/09 14:31:31;;;;;;;9.02;2.30;;;;;;;;;;5001745;28;20475;-85
2022/04/09 14:33:58;;;;;;;8.00;2.30;;;;;;;;;;5002034;28;20465;-85
2022/04/09 14:36:24;;;;;;;7.85;2.10;;;;;;;;;;5002402;28;20427;-85
2022/04/09 14:38:50;;;;;;;5.05;1.60;;;;;;;;;;5001378;28;20534;-85
2022/04/09 14:41:16;;;;;;;8.38;1.90;;;;;;;;;;5001231;28;20483;-85
2022/04/09 14:43:44;;;;;;;8.00;2.58;;;;;;;;;;4998753;28;20488;-85